LIMELIML

Guest
Details From LIME - Bergamo Orio Al Serio
To LIML - Milano Linate
Flight Number -
Tags generated
Created
Modified
Stats Distance 23 nm / 42 km
Max Altitude 2,500 ft / 762 m
Waypoints 3
Social Downloads 0
Likes 0
Share VATSIM

Download

Looking for another format? Having issues loading an existing format? Contact us
Advertisement - Login to hide

Notes

Basic altitude profile: - Ascent Rate: 2500ft/min - Ascent Speed: 250kts - Cruise Altitude: 35000ft - Cruise Speed: 420kts - Descent Rate: 1500ft/min - Descent Speed: 250kts Options: - Use NATs: yes - Use PACOTS: yes - Use low airways: yes - Use high airways: no

Route

LIME TZO LIML

ID Type Via Altitude Latitude Longitude Leg Dist Tot Dist Heading (true) Name
O LIME APT - 0 ft / 0 m 45.67200˚ 9.70689˚ - 0 nm - Bergamo Orio Al Serio
TZO VOR - 2,500 ft / 762 m 45.55916˚ 9.50722˚ 10 nm 10 nm 231° / 231° TREZZO VOR-DME
O LIML APT - 0 ft / 0 m 45.45030˚ 9.27280˚ 11 nm 22 nm 237° / 236° Milano Linate

Altitude Profile

Advertisement - Login to hide

LIME

Details ICAO LIME (BGY)
Name Bergamo Orio Al Serio
Region Italy
Timezone Europe/Rome (UTC+1.0)
Stats Elevation 779 ft / 237 m (AMSL)
Location 45.672004° 9.706892°
Runways 2
Magnetic Variation 2.604° E

METAR

LIME 182220Z 02005KT CAVOK M01/M07 Q1027 NOSIG

Decode

TAF

TAF LIME 181700Z 1818/1918 VRB05KT CAVOK

Decode

Departure Runways

ID Width Length Bearing (true) Bearing (mag) Surface Threshold Offset Overrun Length
10 148 ft / 45 m 9,897 ft / 3,017 m 104.89° 102.29° Asphalt 312 ft / 95 m 0 ft / 0 m
12 59 ft / 18 m 2,665 ft / 812 m 121.47° 118.87° Asphalt 197 ft / 60 m 0 ft / 0 m
28 148 ft / 45 m 9,897 ft / 3,017 m 284.91° 282.31° Asphalt 712 ft / 217 m 0 ft / 0 m
30 59 ft / 18 m 2,665 ft / 812 m 301.48° 298.88° Asphalt 312 ft / 95 m 0 ft / 0 m

LIML

Details ICAO LIML (LIN)
Name Milano Linate
Region Italy
Timezone Europe/Rome (UTC+1.0)
Stats Elevation 353 ft / 108 m (AMSL)
Location 45.450302° 9.272801°
Runways 2
Magnetic Variation 2.502° E

METAR

LIML 182220Z 00000KT CAVOK M03/M04 Q1027 NOSIG

Decode

TAF

TAF LIML 181700Z 1818/1918 VRB05KT 9999 SCT080 TEMPO 1902/1907 3000 BCFG

Decode

Destination Runways

ID Width Length Bearing (true) Bearing (mag) Surface Threshold Offset Overrun Length
17 72 ft / 22 m 1,975 ft / 602 m 175.64° 173.14° Asphalt 200 ft / 61 m 0 ft / 0 m
18 197 ft / 60 m 8,017 ft / 2,443 m 175.67° 173.17° Asphalt 0 ft / 0 m 190 ft / 58 m
35 72 ft / 22 m 1,975 ft / 602 m 355.64° 353.14° Asphalt 200 ft / 61 m 0 ft / 0 m
36 197 ft / 60 m 8,017 ft / 2,443 m 355.68° 353.18° Asphalt 0 ft / 0 m 980 ft / 299 m

Approach Navaids

Runway Type Ident Frequency Range Bearing (true) Bearing (mag) Slope Elevation
36 Localiser ILNT 109.55 MHz 18 nm / 33 km 355.68° 353.17° - 353 ft / 108 m (AMSL)
36 Glidescope ILNT 109.55 MHz 10 nm / 19 km 355.68° 353.17° 3.00° 352 ft / 107 m (AMSL)
36 DME ILNT 109.55 MHz 25 nm / 46 km - - - 352 ft / 107 m (AMSL)

Popular Alternatives